sensor_id;sensor_type;location;lat;lon;timestamp;P1;durP1;ratioP1;P2;durP2;ratioP2
17253;SDS011;32542;52.832;13.816;2023-02-27T00:02:31;15.68;;;11.38;;
17253;SDS011;32542;52.832;13.816;2023-02-27T00:05:35;15.70;;;10.25;;
17253;SDS011;32542;52.832;13.816;2023-02-27T00:08:38;15.10;;;11.13;;
17253;SDS011;32542;52.832;13.816;2023-02-27T00:11:42;16.23;;;11.15;;
17253;SDS011;32542;52.832;13.816;2023-02-27T00:14:45;15.07;;;11.55;;
17253;SDS011;32542;52.832;13.816;2023-02-27T00:17:48;14.18;;;10.65;;
17253;SDS011;32542;52.832;13.816;2023-02-27T00:20:51;15.27;;;11.23;;
17253;SDS011;32542;52.832;13.816;2023-02-27T00:23:55;14.75;;;11.02;;
17253;SDS011;32542;52.832;13.816;2023-02-27T00:26:59;14.82;;;10.82;;
17253;SDS011;32542;52.832;13.816;2023-02-27T00:30:03;15.23;;;10.63;;
17253;SDS011;32542;52.832;13.816;2023-02-27T00:33:06;14.48;;;10.82;;
17253;SDS011;32542;52.832;13.816;2023-02-27T00:36:09;14.80;;;11.05;;
17253;SDS011;32542;52.832;13.816;2023-02-27T00:39:12;13.48;;;10.32;;
17253;SDS011;32542;52.832;13.816;2023-02-27T00:42:17;13.63;;;10.55;;
17253;SDS011;32542;52.832;13.816;2023-02-27T00:45:20;14.30;;;10.85;;
17253;SDS011;32542;52.832;13.816;2023-02-27T00:48:23;13.73;;;9.65;;
17253;SDS011;32542;52.832;13.816;2023-02-27T00:51:27;13.45;;;10.40;;
17253;SDS011;32542;52.832;13.816;2023-02-27T00:54:30;13.50;;;10.65;;
17253;SDS011;32542;52.832;13.816;2023-02-27T00:57:34;14.18;;;10.27;;
17253;SDS011;32542;52.832;13.816;2023-02-27T01:00:38;14.30;;;10.32;;
17253;SDS011;32542;52.832;13.816;2023-02-27T01:03:41;13.38;;;10.05;;
17253;SDS011;32542;52.832;13.816;2023-02-27T01:06:44;13.02;;;10.18;;
17253;SDS011;32542;52.832;13.816;2023-02-27T01:09:47;13.70;;;9.93;;
17253;SDS011;32542;52.832;13.816;2023-02-27T01:12:51;13.00;;;9.77;;
17253;SDS011;32542;52.832;13.816;2023-02-27T01:15:54;13.80;;;9.95;;
17253;SDS011;32542;52.832;13.816;2023-02-27T01:18:57;12.10;;;9.70;;
17253;SDS011;32542;52.832;13.816;2023-02-27T01:22:01;12.63;;;9.45;;
17253;SDS011;32542;52.832;13.816;2023-02-27T01:25:04;11.68;;;9.05;;
17253;SDS011;32542;52.832;13.816;2023-02-27T01:28:09;12.52;;;9.43;;
17253;SDS011;32542;52.832;13.816;2023-02-27T01:31:12;11.30;;;9.07;;
17253;SDS011;32542;52.832;13.816;2023-02-27T01:34:15;13.52;;;9.68;;
17253;SDS011;32542;52.832;13.816;2023-02-27T01:37:19;12.02;;;8.75;;
17253;SDS011;32542;52.832;13.816;2023-02-27T01:40:21;12.60;;;9.48;;
17253;SDS011;32542;52.832;13.816;2023-02-27T01:43:26;11.52;;;8.95;;
17253;SDS011;32542;52.832;13.816;2023-02-27T01:46:29;11.63;;;9.07;;
17253;SDS011;32542;52.832;13.816;2023-02-27T01:49:33;12.85;;;8.98;;
17253;SDS011;32542;52.832;13.816;2023-02-27T01:52:37;11.23;;;8.45;;
17253;SDS011;32542;52.832;13.816;2023-02-27T01:55:42;11.25;;;8.52;;
17253;SDS011;32542;52.832;13.816;2023-02-27T01:58:49;11.23;;;9.25;;
17253;SDS011;32542;52.832;13.816;2023-02-27T02:01:57;10.90;;;8.00;;
17253;SDS011;32542;52.832;13.816;2023-02-27T02:05:03;10.38;;;8.38;;
17253;SDS011;32542;52.832;13.816;2023-02-27T02:08:09;11.63;;;8.82;;
17253;SDS011;32542;52.832;13.816;2023-02-27T02:11:16;10.80;;;8.55;;
17253;SDS011;32542;52.832;13.816;2023-02-27T02:14:22;11.02;;;8.45;;
17253;SDS011;32542;52.832;13.816;2023-02-27T02:17:27;10.52;;;8.40;;
17253;SDS011;32542;52.832;13.816;2023-02-27T02:20:44;9.75;;;7.90;;
17253;SDS011;32542;52.832;13.816;2023-02-27T02:24:27;10.77;;;8.07;;
17253;SDS011;32542;52.832;13.816;2023-02-27T02:27:51;10.07;;;8.20;;
17253;SDS011;32542;52.832;13.816;2023-02-27T02:35:05;9.07;;;7.30;;
17253;SDS011;32542;52.832;13.816;2023-02-27T02:38:40;10.48;;;7.75;;
17253;SDS011;32542;52.832;13.816;2023-02-27T02:42:02;10.20;;;7.70;;
17253;SDS011;32542;52.832;13.816;2023-02-27T02:45:12;9.60;;;7.50;;
17253;SDS011;32542;52.832;13.816;2023-02-27T02:48:19;8.45;;;6.88;;
17253;SDS011;32542;52.832;13.816;2023-02-27T02:51:29;9.45;;;7.22;;
17253;SDS011;32542;52.832;13.816;2023-02-27T02:54:38;10.45;;;7.50;;
17253;SDS011;32542;52.832;13.816;2023-02-27T02:57:46;9.60;;;6.93;;
17253;SDS011;32542;52.832;13.816;2023-02-27T03:00:55;9.05;;;6.90;;
17253;SDS011;32542;52.832;13.816;2023-02-27T03:04:06;10.75;;;7.53;;
17253;SDS011;32542;52.832;13.816;2023-02-27T03:07:15;8.77;;;6.57;;
17253;SDS011;32542;52.832;13.816;2023-02-27T03:10:27;8.15;;;6.63;;
17253;SDS011;32542;52.832;13.816;2023-02-27T03:13:36;8.68;;;7.18;;
17253;SDS011;32542;52.832;13.816;2023-02-27T03:16:43;8.07;;;6.60;;
17253;SDS011;32542;52.832;13.816;2023-02-27T03:19:51;8.02;;;6.70;;
17253;SDS011;32542;52.832;13.816;2023-02-27T03:23:00;8.95;;;7.05;;
17253;SDS011;32542;52.832;13.816;2023-02-27T03:26:08;8.57;;;6.43;;
17253;SDS011;32542;52.832;13.816;2023-02-27T03:29:15;8.57;;;6.70;;
17253;SDS011;32542;52.832;13.816;2023-02-27T03:32:26;9.13;;;6.35;;
17253;SDS011;32542;52.832;13.816;2023-02-27T03:35:36;8.07;;;6.25;;
17253;SDS011;32542;52.832;13.816;2023-02-27T03:38:47;8.52;;;6.22;;
17253;SDS011;32542;52.832;13.816;2023-02-27T03:41:59;7.75;;;6.20;;
17253;SDS011;32542;52.832;13.816;2023-02-27T03:45:33;6.82;;;5.70;;
17253;SDS011;32542;52.832;13.816;2023-02-27T03:48:41;7.03;;;5.60;;
17253;SDS011;32542;52.832;13.816;2023-02-27T03:51:45;7.15;;;5.85;;
17253;SDS011;32542;52.832;13.816;2023-02-27T03:54:49;7.32;;;5.95;;
17253;SDS011;32542;52.832;13.816;2023-02-27T03:57:59;7.68;;;6.30;;
17253;SDS011;32542;52.832;13.816;2023-02-27T04:01:02;7.05;;;5.63;;
17253;SDS011;32542;52.832;13.816;2023-02-27T04:04:06;8.18;;;6.07;;
17253;SDS011;32542;52.832;13.816;2023-02-27T04:07:36;7.60;;;5.63;;
17253;SDS011;32542;52.832;13.816;2023-02-27T04:10:55;8.48;;;5.72;;
17253;SDS011;32542;52.832;13.816;2023-02-27T04:14:20;8.10;;;5.60;;
17253;SDS011;32542;52.832;13.816;2023-02-27T04:17:33;6.90;;;5.55;;
17253;SDS011;32542;52.832;13.816;2023-02-27T04:20:45;6.18;;;5.05;;
17253;SDS011;32542;52.832;13.816;2023-02-27T04:23:56;7.05;;;5.30;;
17253;SDS011;32542;52.832;13.816;2023-02-27T04:27:10;5.60;;;4.72;;
17253;SDS011;32542;52.832;13.816;2023-02-27T04:30:24;6.63;;;5.07;;
17253;SDS011;32542;52.832;13.816;2023-02-27T04:33:35;5.95;;;5.35;;
17253;SDS011;32542;52.832;13.816;2023-02-27T04:36:45;5.72;;;4.28;;
17253;SDS011;32542;52.832;13.816;2023-02-27T04:39:52;5.43;;;4.68;;
17253;SDS011;32542;52.832;13.816;2023-02-27T04:42:59;5.00;;;4.00;;
17253;SDS011;32542;52.832;13.816;2023-02-27T04:46:07;4.97;;;4.43;;
17253;SDS011;32542;52.832;13.816;2023-02-27T04:49:15;5.97;;;4.70;;
17253;SDS011;32542;52.832;13.816;2023-02-27T04:52:21;6.25;;;5.20;;
17253;SDS011;32542;52.832;13.816;2023-02-27T04:55:31;5.50;;;4.40;;
17253;SDS011;32542;52.832;13.816;2023-02-27T04:58:38;5.32;;;4.50;;
17253;SDS011;32542;52.832;13.816;2023-02-27T05:01:52;6.60;;;5.00;;
17253;SDS011;32542;52.832;13.816;2023-02-27T05:04:59;4.78;;;4.10;;
17253;SDS011;32542;52.832;13.816;2023-02-27T05:08:08;6.07;;;4.60;;
17253;SDS011;32542;52.832;13.816;2023-02-27T05:11:17;5.28;;;4.15;;
17253;SDS011;32542;52.832;13.816;2023-02-27T05:14:28;5.55;;;4.68;;
17253;SDS011;32542;52.832;13.816;2023-02-27T05:17:37;6.68;;;4.90;;
17253;SDS011;32542;52.832;13.816;2023-02-27T05:20:49;5.03;;;4.40;;
17253;SDS011;32542;52.832;13.816;2023-02-27T05:24:02;5.00;;;4.03;;
17253;SDS011;32542;52.832;13.816;2023-02-27T05:27:15;5.47;;;4.40;;
17253;SDS011;32542;52.832;13.816;2023-02-27T05:30:25;4.55;;;4.03;;
17253;SDS011;32542;52.832;13.816;2023-02-27T05:33:34;5.88;;;4.38;;
17253;SDS011;32542;52.832;13.816;2023-02-27T05:36:40;5.03;;;4.05;;
17253;SDS011;32542;52.832;13.816;2023-02-27T05:39:47;5.28;;;4.28;;
17253;SDS011;32542;52.832;13.816;2023-02-27T05:42:54;5.05;;;4.30;;
17253;SDS011;32542;52.832;13.816;2023-02-27T05:46:03;5.03;;;4.03;;
17253;SDS011;32542;52.832;13.816;2023-02-27T05:49:12;4.63;;;4.00;;
17253;SDS011;32542;52.832;13.816;2023-02-27T05:52:19;5.03;;;4.22;;
17253;SDS011;32542;52.832;13.816;2023-02-27T05:55:26;4.78;;;3.88;;
17253;SDS011;32542;52.832;13.816;2023-02-27T05:58:34;5.10;;;3.60;;
17253;SDS011;32542;52.832;13.816;2023-02-27T06:01:42;5.18;;;3.97;;
17253;SDS011;32542;52.832;13.816;2023-02-27T06:04:48;5.22;;;4.18;;
17253;SDS011;32542;52.832;13.816;2023-02-27T06:07:51;5.63;;;4.10;;
17253;SDS011;32542;52.832;13.816;2023-02-27T06:10:54;4.95;;;3.90;;
17253;SDS011;32542;52.832;13.816;2023-02-27T06:13:57;4.25;;;3.75;;
17253;SDS011;32542;52.832;13.816;2023-02-27T06:17:00;4.65;;;3.72;;
17253;SDS011;32542;52.832;13.816;2023-02-27T06:20:06;4.93;;;3.80;;
17253;SDS011;32542;52.832;13.816;2023-02-27T06:23:10;4.90;;;4.00;;
17253;SDS011;32542;52.832;13.816;2023-02-27T06:26:14;4.80;;;3.70;;
17253;SDS011;32542;52.832;13.816;2023-02-27T06:29:17;4.38;;;3.47;;
17253;SDS011;32542;52.832;13.816;2023-02-27T06:32:20;5.63;;;3.67;;
17253;SDS011;32542;52.832;13.816;2023-02-27T06:35:27;4.30;;;3.40;;
17253;SDS011;32542;52.832;13.816;2023-02-27T06:38:31;4.90;;;3.60;;
17253;SDS011;32542;52.832;13.816;2023-02-27T06:41:34;3.90;;;3.40;;
17253;SDS011;32542;52.832;13.816;2023-02-27T06:44:37;5.20;;;3.80;;
17253;SDS011;32542;52.832;13.816;2023-02-27T06:47:41;4.18;;;3.53;;
17253;SDS011;32542;52.832;13.816;2023-02-27T06:50:46;4.82;;;3.53;;
17253;SDS011;32542;52.832;13.816;2023-02-27T06:53:53;4.30;;;3.33;;
17253;SDS011;32542;52.832;13.816;2023-02-27T06:56:56;3.95;;;3.47;;
17253;SDS011;32542;52.832;13.816;2023-02-27T06:59:59;4.90;;;3.20;;
17253;SDS011;32542;52.832;13.816;2023-02-27T07:03:02;4.70;;;3.58;;
17253;SDS011;32542;52.832;13.816;2023-02-27T07:06:06;4.88;;;3.67;;
17253;SDS011;32542;52.832;13.816;2023-02-27T07:09:09;4.25;;;3.50;;
17253;SDS011;32542;52.832;13.816;2023-02-27T07:12:12;6.65;;;3.55;;
17253;SDS011;32542;52.832;13.816;2023-02-27T07:15:16;7.13;;;4.90;;
17253;SDS011;32542;52.832;13.816;2023-02-27T07:18:19;5.82;;;5.07;;
17253;SDS011;32542;52.832;13.816;2023-02-27T07:21:23;7.78;;;5.97;;
17253;SDS011;32542;52.832;13.816;2023-02-27T07:24:26;10.25;;;7.40;;
17253;SDS011;32542;52.832;13.816;2023-02-27T07:27:29;10.25;;;7.63;;
17253;SDS011;32542;52.832;13.816;2023-02-27T07:30:32;10.48;;;8.23;;
17253;SDS011;32542;52.832;13.816;2023-02-27T07:33:35;11.10;;;8.70;;
17253;SDS011;32542;52.832;13.816;2023-02-27T07:36:40;10.43;;;7.97;;
17253;SDS011;32542;52.832;13.816;2023-02-27T07:39:43;10.30;;;8.35;;
17253;SDS011;32542;52.832;13.816;2023-02-27T07:42:46;10.93;;;7.82;;
17253;SDS011;32542;52.832;13.816;2023-02-27T07:45:53;9.80;;;7.47;;
17253;SDS011;32542;52.832;13.816;2023-02-27T07:48:56;9.75;;;7.18;;
17253;SDS011;32542;52.832;13.816;2023-02-27T07:52:00;8.98;;;6.53;;
17253;SDS011;32542;52.832;13.816;2023-02-27T07:55:04;9.23;;;5.80;;
17253;SDS011;32542;52.832;13.816;2023-02-27T07:58:08;7.60;;;5.40;;
17253;SDS011;32542;52.832;13.816;2023-02-27T08:01:11;7.65;;;5.15;;
17253;SDS011;32542;52.832;13.816;2023-02-27T08:04:14;8.35;;;5.20;;
17253;SDS011;32542;52.832;13.816;2023-02-27T08:07:18;6.82;;;5.30;;
17253;SDS011;32542;52.832;13.816;2023-02-27T08:10:21;8.18;;;5.68;;
17253;SDS011;32542;52.832;13.816;2023-02-27T08:13:25;8.38;;;5.53;;
17253;SDS011;32542;52.832;13.816;2023-02-27T08:16:48;10.45;;;4.85;;
17253;SDS011;32542;52.832;13.816;2023-02-27T08:19:51;8.48;;;5.07;;
17253;SDS011;32542;52.832;13.816;2023-02-27T08:22:56;13.77;;;5.07;;
17253;SDS011;32542;52.832;13.816;2023-02-27T08:25:59;9.35;;;4.28;;
17253;SDS011;32542;52.832;13.816;2023-02-27T08:29:02;8.48;;;4.07;;
17253;SDS011;32542;52.832;13.816;2023-02-27T08:32:06;12.13;;;3.55;;
17253;SDS011;32542;52.832;13.816;2023-02-27T08:35:10;4.88;;;3.58;;
17253;SDS011;32542;52.832;13.816;2023-02-27T08:38:14;7.38;;;3.72;;
17253;SDS011;32542;52.832;13.816;2023-02-27T08:41:18;9.10;;;3.35;;
17253;SDS011;32542;52.832;13.816;2023-02-27T08:44:21;12.73;;;4.13;;
17253;SDS011;32542;52.832;13.816;2023-02-27T08:47:24;8.80;;;4.00;;
17253;SDS011;32542;52.832;13.816;2023-02-27T08:50:27;8.43;;;3.00;;
17253;SDS011;32542;52.832;13.816;2023-02-27T08:53:31;5.53;;;3.50;;
17253;SDS011;32542;52.832;13.816;2023-02-27T08:56:34;6.32;;;3.97;;
17253;SDS011;32542;52.832;13.816;2023-02-27T08:59:37;7.22;;;3.30;;
17253;SDS011;32542;52.832;13.816;2023-02-27T09:02:40;6.50;;;3.38;;
17253;SDS011;32542;52.832;13.816;2023-02-27T09:05:43;8.95;;;4.25;;
17253;SDS011;32542;52.832;13.816;2023-02-27T09:08:48;7.47;;;3.70;;
17253;SDS011;32542;52.832;13.816;2023-02-27T09:11:51;7.68;;;3.75;;
17253;SDS011;32542;52.832;13.816;2023-02-27T09:14:54;7.22;;;3.17;;
17253;SDS011;32542;52.832;13.816;2023-02-27T09:17:57;6.32;;;3.33;;
17253;SDS011;32542;52.832;13.816;2023-02-27T09:21:04;5.75;;;3.05;;
17253;SDS011;32542;52.832;13.816;2023-02-27T09:24:09;7.95;;;3.60;;
17253;SDS011;32542;52.832;13.816;2023-02-27T09:27:20;9.13;;;3.53;;
17253;SDS011;32542;52.832;13.816;2023-02-27T09:30:24;7.57;;;3.13;;
17253;SDS011;32542;52.832;13.816;2023-02-27T09:33:28;7.75;;;3.55;;
17253;SDS011;32542;52.832;13.816;2023-02-27T09:36:31;9.48;;;3.58;;
17253;SDS011;32542;52.832;13.816;2023-02-27T09:39:36;5.82;;;3.65;;
17253;SDS011;32542;52.832;13.816;2023-02-27T09:42:40;6.03;;;3.67;;
17253;SDS011;32542;52.832;13.816;2023-02-27T09:45:49;6.68;;;3.60;;
17253;SDS011;32542;52.832;13.816;2023-02-27T09:48:55;5.13;;;3.00;;
17253;SDS011;32542;52.832;13.816;2023-02-27T09:52:00;6.55;;;3.20;;
17253;SDS011;32542;52.832;13.816;2023-02-27T09:55:06;5.43;;;3.15;;
17253;SDS011;32542;52.832;13.816;2023-02-27T09:58:23;6.93;;;3.83;;
17253;SDS011;32542;52.832;13.816;2023-02-27T10:01:34;6.30;;;3.28;;
17253;SDS011;32542;52.832;13.816;2023-02-27T10:04:43;5.13;;;3.10;;
17253;SDS011;32542;52.832;13.816;2023-02-27T10:07:57;6.65;;;3.40;;
17253;SDS011;32542;52.832;13.816;2023-02-27T10:11:06;6.18;;;3.50;;
17253;SDS011;32542;52.832;13.816;2023-02-27T10:14:14;9.45;;;3.45;;
17253;SDS011;32542;52.832;13.816;2023-02-27T10:17:30;11.85;;;3.72;;
17253;SDS011;32542;52.832;13.816;2023-02-27T10:20:38;11.70;;;2.88;;
17253;SDS011;32542;52.832;13.816;2023-02-27T10:23:47;13.02;;;3.13;;
17253;SDS011;32542;52.832;13.816;2023-02-27T10:26:56;6.97;;;2.90;;
17253;SDS011;32542;52.832;13.816;2023-02-27T10:30:08;6.88;;;3.35;;
17253;SDS011;32542;52.832;13.816;2023-02-27T10:33:31;10.32;;;3.15;;
17253;SDS011;32542;52.832;13.816;2023-02-27T10:36:37;9.50;;;2.97;;
17253;SDS011;32542;52.832;13.816;2023-02-27T10:39:43;14.88;;;3.38;;
17253;SDS011;32542;52.832;13.816;2023-02-27T10:42:50;11.43;;;3.08;;
17253;SDS011;32542;52.832;13.816;2023-02-27T10:45:54;9.55;;;3.10;;
17253;SDS011;32542;52.832;13.816;2023-02-27T10:48:58;9.63;;;3.40;;
17253;SDS011;32542;52.832;13.816;2023-02-27T10:52:07;15.93;;;3.83;;
17253;SDS011;32542;52.832;13.816;2023-02-27T10:55:15;11.85;;;3.17;;
17253;SDS011;32542;52.832;13.816;2023-02-27T10:58:21;7.50;;;3.15;;
17253;SDS011;32542;52.832;13.816;2023-02-27T11:01:25;6.75;;;3.40;;
17253;SDS011;32542;52.832;13.816;2023-02-27T11:04:45;13.77;;;3.60;;
17253;SDS011;32542;52.832;13.816;2023-02-27T11:07:55;4.70;;;3.30;;
17253;SDS011;32542;52.832;13.816;2023-02-27T11:11:11;6.88;;;2.60;;
17253;SDS011;32542;52.832;13.816;2023-02-27T11:14:21;12.20;;;3.08;;
17253;SDS011;32542;52.832;13.816;2023-02-27T11:17:28;5.50;;;2.97;;
17253;SDS011;32542;52.832;13.816;2023-02-27T11:20:34;11.50;;;3.08;;
17253;SDS011;32542;52.832;13.816;2023-02-27T11:23:48;16.98;;;3.58;;
17253;SDS011;32542;52.832;13.816;2023-02-27T11:26:53;8.80;;;3.10;;
17253;SDS011;32542;52.832;13.816;2023-02-27T11:29:59;9.85;;;3.38;;
17253;SDS011;32542;52.832;13.816;2023-02-27T11:33:04;7.40;;;2.90;;
17253;SDS011;32542;52.832;13.816;2023-02-27T11:36:19;6.88;;;3.35;;
17253;SDS011;32542;52.832;13.816;2023-02-27T11:39:25;10.02;;;2.97;;
17253;SDS011;32542;52.832;13.816;2023-02-27T11:42:31;9.48;;;2.97;;
17253;SDS011;32542;52.832;13.816;2023-02-27T11:45:39;6.90;;;3.08;;
17253;SDS011;32542;52.832;13.816;2023-02-27T11:49:06;8.70;;;3.75;;
17253;SDS011;32542;52.832;13.816;2023-02-27T11:52:24;10.40;;;3.20;;
17253;SDS011;32542;52.832;13.816;2023-02-27T11:55:33;8.43;;;3.38;;
17253;SDS011;32542;52.832;13.816;2023-02-27T11:58:37;6.32;;;3.30;;
17253;SDS011;32542;52.832;13.816;2023-02-27T12:01:48;10.63;;;4.63;;
17253;SDS011;32542;52.832;13.816;2023-02-27T12:04:55;8.27;;;3.47;;
17253;SDS011;32542;52.832;13.816;2023-02-27T12:08:03;9.95;;;3.95;;
17253;SDS011;32542;52.832;13.816;2023-02-27T12:11:12;7.50;;;3.80;;
17253;SDS011;32542;52.832;13.816;2023-02-27T12:14:24;6.93;;;3.63;;
17253;SDS011;32542;52.832;13.816;2023-02-27T12:17:35;12.38;;;5.80;;
17253;SDS011;32542;52.832;13.816;2023-02-27T12:20:44;10.60;;;5.13;;
17253;SDS011;32542;52.832;13.816;2023-02-27T12:23:54;8.73;;;5.00;;
17253;SDS011;32542;52.832;13.816;2023-02-27T12:27:04;13.60;;;5.05;;
17253;SDS011;32542;52.832;13.816;2023-02-27T12:30:17;16.98;;;5.20;;
17253;SDS011;32542;52.832;13.816;2023-02-27T12:33:27;8.75;;;4.85;;
17253;SDS011;32542;52.832;13.816;2023-02-27T12:36:37;9.23;;;4.28;;
17253;SDS011;32542;52.832;13.816;2023-02-27T12:39:41;11.55;;;4.80;;
17253;SDS011;32542;52.832;13.816;2023-02-27T12:42:58;13.20;;;5.25;;
17253;SDS011;32542;52.832;13.816;2023-02-27T12:46:15;14.35;;;4.60;;
17253;SDS011;32542;52.832;13.816;2023-02-27T12:49:30;14.98;;;4.90;;
17253;SDS011;32542;52.832;13.816;2023-02-27T12:52:45;14.05;;;5.03;;
17253;SDS011;32542;52.832;13.816;2023-02-27T12:56:00;11.98;;;4.88;;
17253;SDS011;32542;52.832;13.816;2023-02-27T12:59:10;8.65;;;5.10;;
17253;SDS011;32542;52.832;13.816;2023-02-27T13:02:27;15.75;;;4.80;;
17253;SDS011;32542;52.832;13.816;2023-02-27T13:05:44;14.85;;;5.03;;
17253;SDS011;32542;52.832;13.816;2023-02-27T13:08:57;8.82;;;5.20;;
17253;SDS011;32542;52.832;13.816;2023-02-27T13:12:14;10.27;;;4.90;;
17253;SDS011;32542;52.832;13.816;2023-02-27T13:15:26;11.75;;;5.28;;
17253;SDS011;32542;52.832;13.816;2023-02-27T13:18:36;10.65;;;4.60;;
17253;SDS011;32542;52.832;13.816;2023-02-27T13:21:45;14.52;;;4.85;;
17253;SDS011;32542;52.832;13.816;2023-02-27T13:24:55;9.88;;;4.65;;
17253;SDS011;32542;52.832;13.816;2023-02-27T13:28:01;8.10;;;4.45;;
17253;SDS011;32542;52.832;13.816;2023-02-27T13:31:12;7.47;;;4.90;;
17253;SDS011;32542;52.832;13.816;2023-02-27T13:34:23;12.07;;;4.97;;
17253;SDS011;32542;52.832;13.816;2023-02-27T13:37:49;10.25;;;5.18;;
17253;SDS011;32542;52.832;13.816;2023-02-27T13:40:54;11.05;;;5.55;;
17253;SDS011;32542;52.832;13.816;2023-02-27T13:43:57;7.63;;;4.75;;
17253;SDS011;32542;52.832;13.816;2023-02-27T13:50:52;8.25;;;4.45;;
17253;SDS011;32542;52.832;13.816;2023-02-27T13:54:14;7.65;;;4.40;;
17253;SDS011;32542;52.832;13.816;2023-02-27T13:57:23;11.80;;;4.85;;
17253;SDS011;32542;52.832;13.816;2023-02-27T14:00:28;7.82;;;5.20;;
17253;SDS011;32542;52.832;13.816;2023-02-27T14:03:33;15.48;;;5.22;;
17253;SDS011;32542;52.832;13.816;2023-02-27T14:06:41;11.15;;;5.10;;
17253;SDS011;32542;52.832;13.816;2023-02-27T14:09:47;11.88;;;5.10;;
17253;SDS011;32542;52.832;13.816;2023-02-27T14:12:53;12.65;;;5.10;;
17253;SDS011;32542;52.832;13.816;2023-02-27T14:15:57;7.65;;;4.80;;
17253;SDS011;32542;52.832;13.816;2023-02-27T14:19:01;12.48;;;5.57;;
17253;SDS011;32542;52.832;13.816;2023-02-27T14:25:39;8.48;;;5.30;;
17253;SDS011;32542;52.832;13.816;2023-02-27T14:28:47;9.18;;;5.00;;
17253;SDS011;32542;52.832;13.816;2023-02-27T14:31:56;7.57;;;5.00;;
17253;SDS011;32542;52.832;13.816;2023-02-27T14:35:03;8.73;;;4.80;;
17253;SDS011;32542;52.832;13.816;2023-02-27T14:38:09;8.45;;;5.18;;
17253;SDS011;32542;52.832;13.816;2023-02-27T14:44:41;7.40;;;4.80;;
17253;SDS011;32542;52.832;13.816;2023-02-27T14:47:47;8.68;;;5.55;;
17253;SDS011;32542;52.832;13.816;2023-02-27T14:50:51;7.28;;;4.95;;
17253;SDS011;32542;52.832;13.816;2023-02-27T14:53:59;9.95;;;5.68;;
17253;SDS011;32542;52.832;13.816;2023-02-27T14:57:05;10.02;;;5.45;;
17253;SDS011;32542;52.832;13.816;2023-02-27T15:03:39;6.78;;;4.80;;
17253;SDS011;32542;52.832;13.816;2023-02-27T15:06:47;8.02;;;5.03;;
17253;SDS011;32542;52.832;13.816;2023-02-27T15:09:53;7.35;;;4.55;;
17253;SDS011;32542;52.832;13.816;2023-02-27T15:12:59;7.40;;;5.00;;
17253;SDS011;32542;52.832;13.816;2023-02-27T15:19:34;9.00;;;4.75;;
17253;SDS011;32542;52.832;13.816;2023-02-27T15:22:38;9.23;;;5.10;;
17253;SDS011;32542;52.832;13.816;2023-02-27T15:25:41;6.40;;;4.45;;
17253;SDS011;32542;52.832;13.816;2023-02-27T15:28:46;8.27;;;5.22;;
17253;SDS011;32542;52.832;13.816;2023-02-27T15:31:50;8.90;;;5.15;;
17253;SDS011;32542;52.832;13.816;2023-02-27T15:34:55;11.90;;;4.93;;
17253;SDS011;32542;52.832;13.816;2023-02-27T15:37:59;10.65;;;4.80;;
17253;SDS011;32542;52.832;13.816;2023-02-27T15:41:03;9.23;;;5.07;;
17253;SDS011;32542;52.832;13.816;2023-02-27T15:44:09;13.75;;;5.45;;
17253;SDS011;32542;52.832;13.816;2023-02-27T15:47:15;9.45;;;5.20;;
17253;SDS011;32542;52.832;13.816;2023-02-27T15:50:25;9.18;;;5.15;;
17253;SDS011;32542;52.832;13.816;2023-02-27T15:53:30;8.57;;;5.28;;
17253;SDS011;32542;52.832;13.816;2023-02-27T15:56:34;6.82;;;4.93;;
17253;SDS011;32542;52.832;13.816;2023-02-27T15:59:41;7.35;;;5.07;;
17253;SDS011;32542;52.832;13.816;2023-02-27T16:02:45;10.07;;;5.22;;
17253;SDS011;32542;52.832;13.816;2023-02-27T16:05:51;10.25;;;5.35;;
17253;SDS011;32542;52.832;13.816;2023-02-27T16:08:55;7.55;;;5.28;;
17253;SDS011;32542;52.832;13.816;2023-02-27T16:12:08;7.85;;;4.57;;
17253;SDS011;32542;52.832;13.816;2023-02-27T16:15:25;7.82;;;5.63;;
17253;SDS011;32542;52.832;13.816;2023-02-27T16:18:32;12.20;;;5.25;;
17253;SDS011;32542;52.832;13.816;2023-02-27T16:21:37;9.48;;;4.82;;
17253;SDS011;32542;52.832;13.816;2023-02-27T16:24:42;7.57;;;4.72;;
17253;SDS011;32542;52.832;13.816;2023-02-27T16:27:46;9.73;;;5.05;;
17253;SDS011;32542;52.832;13.816;2023-02-27T16:30:53;7.22;;;4.50;;
17253;SDS011;32542;52.832;13.816;2023-02-27T16:33:57;8.38;;;5.13;;
17253;SDS011;32542;52.832;13.816;2023-02-27T16:37:02;11.20;;;5.03;;
17253;SDS011;32542;52.832;13.816;2023-02-27T16:40:09;11.93;;;4.82;;
17253;SDS011;32542;52.832;13.816;2023-02-27T16:43:15;9.98;;;4.80;;
17253;SDS011;32542;52.832;13.816;2023-02-27T16:46:20;8.43;;;4.82;;
17253;SDS011;32542;52.832;13.816;2023-02-27T16:49:25;8.25;;;4.55;;
17253;SDS011;32542;52.832;13.816;2023-02-27T16:52:29;8.15;;;4.15;;
17253;SDS011;32542;52.832;13.816;2023-02-27T16:55:32;8.07;;;4.50;;
17253;SDS011;32542;52.832;13.816;2023-02-27T16:58:35;10.90;;;5.32;;
17253;SDS011;32542;52.832;13.816;2023-02-27T17:01:40;6.70;;;4.22;;
17253;SDS011;32542;52.832;13.816;2023-02-27T17:04:44;10.50;;;4.95;;
17253;SDS011;32542;52.832;13.816;2023-02-27T17:07:48;8.55;;;4.88;;
17253;SDS011;32542;52.832;13.816;2023-02-27T17:10:51;8.15;;;5.05;;
17253;SDS011;32542;52.832;13.816;2023-02-27T17:13:54;6.55;;;4.90;;
17253;SDS011;32542;52.832;13.816;2023-02-27T17:16:58;7.10;;;5.15;;
17253;SDS011;32542;52.832;13.816;2023-02-27T17:20:02;11.75;;;5.40;;
17253;SDS011;32542;52.832;13.816;2023-02-27T17:23:07;10.65;;;5.43;;
17253;SDS011;32542;52.832;13.816;2023-02-27T17:26:14;9.90;;;4.78;;
17253;SDS011;32542;52.832;13.816;2023-02-27T17:29:17;16.33;;;5.13;;
17253;SDS011;32542;52.832;13.816;2023-02-27T17:32:22;7.30;;;4.47;;
17253;SDS011;32542;52.832;13.816;2023-02-27T17:35:26;6.80;;;4.95;;
17253;SDS011;32542;52.832;13.816;2023-02-27T17:38:30;10.10;;;4.85;;
17253;SDS011;32542;52.832;13.816;2023-02-27T17:41:34;9.38;;;5.22;;
17253;SDS011;32542;52.832;13.816;2023-02-27T17:44:37;8.75;;;5.22;;
17253;SDS011;32542;52.832;13.816;2023-02-27T17:47:42;15.02;;;6.72;;
17253;SDS011;32542;52.832;13.816;2023-02-27T17:50:45;11.35;;;5.35;;
17253;SDS011;32542;52.832;13.816;2023-02-27T17:53:48;9.93;;;5.68;;
17253;SDS011;32542;52.832;13.816;2023-02-27T17:56:51;9.68;;;4.75;;
17253;SDS011;32542;52.832;13.816;2023-02-27T17:59:54;8.77;;;5.28;;
17253;SDS011;32542;52.832;13.816;2023-02-27T18:02:58;9.05;;;5.00;;
17253;SDS011;32542;52.832;13.816;2023-02-27T18:06:02;8.05;;;5.57;;
17253;SDS011;32542;52.832;13.816;2023-02-27T18:09:05;7.68;;;4.78;;
17253;SDS011;32542;52.832;13.816;2023-02-27T18:12:08;7.55;;;4.88;;
17253;SDS011;32542;52.832;13.816;2023-02-27T18:15:11;10.85;;;5.80;;
17253;SDS011;32542;52.832;13.816;2023-02-27T18:18:16;6.47;;;5.10;;
17253;SDS011;32542;52.832;13.816;2023-02-27T18:21:20;7.70;;;5.10;;
17253;SDS011;32542;52.832;13.816;2023-02-27T18:24:25;14.07;;;5.70;;
17253;SDS011;32542;52.832;13.816;2023-02-27T18:27:28;9.77;;;5.47;;
17253;SDS011;32542;52.832;13.816;2023-02-27T18:30:34;7.43;;;4.95;;
17253;SDS011;32542;52.832;13.816;2023-02-27T18:33:40;8.05;;;5.65;;
17253;SDS011;32542;52.832;13.816;2023-02-27T18:36:45;7.40;;;4.97;;
17253;SDS011;32542;52.832;13.816;2023-02-27T18:39:48;9.52;;;5.93;;
17253;SDS011;32542;52.832;13.816;2023-02-27T18:42:51;12.07;;;5.63;;
17253;SDS011;32542;52.832;13.816;2023-02-27T18:45:54;10.43;;;5.82;;